Time;durP1;ratioP1;P1;durP2;ratioP2;P2;SDS_P1;SDS_P2;PMS_P1;PMS_P2;Temp;Humidity;BMP_temperature;BMP_pressure;BME280_temperature;BME280_humidity;BME280_pressure;Samples;Min_cycle;Max_cycle;Signal;HPM_P1;HPM_P2
2021/03/09 00:00:41;;;;;;;10.83;3.43;;;;;;;;;;5033689;28;20050;-65
2021/03/09 00:03:07;;;;;;;12.02;3.08;;;;;;;;;;5033268;28;20034;-65
2021/03/09 00:05:33;;;;;;;17.77;3.07;;;;;;;;;;5027890;28;20065;-65
2021/03/09 00:07:59;;;;;;;10.97;3.40;;;;;;;;;;5034436;28;20050;-65
2021/03/09 00:10:26;;;;;;;10.13;2.90;;;;;;;;;;5030651;28;20440;-65
2021/03/09 00:12:52;;;;;;;9.50;3.60;;;;;;;;;;5028787;28;20124;-65
2021/03/09 00:15:18;;;;;;;11.87;3.10;;;;;;;;;;5025301;28;20111;-65
2021/03/09 00:17:44;;;;;;;16.27;3.60;;;;;;;;;;5035060;28;20053;-65
2021/03/09 00:20:12;;;;;;;9.97;3.33;;;;;;;;;;5033145;28;20132;-65
2021/03/09 00:22:38;;;;;;;15.73;4.70;;;;;;;;;;5027628;28;20702;-65
2021/03/09 00:25:05;;;;;;;9.57;3.10;;;;;;;;;;5031629;28;20080;-65
2021/03/09 00:27:31;;;;;;;10.37;3.13;;;;;;;;;;5031694;28;20079;-65
2021/03/09 00:29:57;;;;;;;12.05;3.53;;;;;;;;;;5032679;28;20790;-65
2021/03/09 00:32:23;;;;;;;9.83;3.40;;;;;;;;;;5034286;28;20049;-65
2021/03/09 00:34:49;;;;;;;15.57;3.20;;;;;;;;;;5033201;28;20688;-65
2021/03/09 00:37:16;;;;;;;14.10;3.87;;;;;;;;;;5030410;28;20386;-65
2021/03/09 00:39:42;;;;;;;9.57;3.33;;;;;;;;;;5030577;28;20479;-65
2021/03/09 00:42:09;;;;;;;10.50;2.97;;;;;;;;;;5032025;28;20120;-65
2021/03/09 00:44:35;;;;;;;13.37;3.37;;;;;;;;;;5029348;28;20481;-65
2021/03/09 00:47:01;;;;;;;7.60;3.30;;;;;;;;;;5026408;28;20076;-65
2021/03/09 00:49:27;;;;;;;8.50;2.80;;;;;;;;;;5028602;28;20041;-65
2021/03/09 00:51:54;;;;;;;7.38;2.28;;;;;;;;;;5030852;28;20061;-65
2021/03/09 00:54:20;;;;;;;12.37;2.83;;;;;;;;;;5025912;28;20081;-65
2021/03/09 00:56:46;;;;;;;14.40;3.10;;;;;;;;;;5030328;28;20045;-65
2021/03/09 00:59:12;;;;;;;10.67;3.57;;;;;;;;;;5030005;28;20041;-66
2021/03/09 01:01:39;;;;;;;7.80;3.30;;;;;;;;;;5032706;28;20041;-65
2021/03/09 01:04:05;;;;;;;10.40;3.20;;;;;;;;;;5032577;28;20046;-65
2021/03/09 01:06:31;;;;;;;12.17;3.57;;;;;;;;;;5027459;28;20107;-65
2021/03/09 01:08:57;;;;;;;7.33;2.70;;;;;;;;;;5029196;28;20115;-65
2021/03/09 01:11:23;;;;;;;8.73;2.67;;;;;;;;;;5028478;28;20394;-65
2021/03/09 01:13:50;;;;;;;8.10;2.97;;;;;;;;;;5031673;28;20418;-65
2021/03/09 01:16:16;;;;;;;7.53;3.10;;;;;;;;;;5024432;28;20049;-65
2021/03/09 01:18:42;;;;;;;10.67;2.80;;;;;;;;;;5028810;28;20046;-65
2021/03/09 01:21:08;;;;;;;9.67;2.67;;;;;;;;;;5030236;28;20397;-65
2021/03/09 01:23:35;;;;;;;17.43;3.13;;;;;;;;;;5025046;28;20104;-65
2021/03/09 01:26:01;;;;;;;12.77;2.87;;;;;;;;;;5027369;28;20041;-65
2021/03/09 01:28:27;;;;;;;9.00;2.90;;;;;;;;;;5025823;28;20484;-65
2021/03/09 01:30:53;;;;;;;14.83;3.03;;;;;;;;;;5030059;28;20061;-65
2021/03/09 01:33:20;;;;;;;8.23;3.00;;;;;;;;;;5031519;28;20560;-65
2021/03/09 01:35:46;;;;;;;9.20;2.73;;;;;;;;;;5029933;28;20119;-65
2021/03/09 01:38:12;;;;;;;11.03;2.83;;;;;;;;;;5032359;28;20041;-65
2021/03/09 01:40:38;;;;;;;14.10;3.67;;;;;;;;;;5028916;28;20096;-65
2021/03/09 01:43:05;;;;;;;10.07;2.70;;;;;;;;;;5030883;28;20049;-65
2021/03/09 01:45:31;;;;;;;9.17;3.17;;;;;;;;;;5026916;28;20056;-65
2021/03/09 01:48:02;;;;;;;7.78;3.00;;;;;;;;;;5024100;28;20038;-65
2021/03/09 01:50:29;;;;;;;9.33;2.90;;;;;;;;;;5029201;28;20038;-65
2021/03/09 01:52:55;;;;;;;6.78;1.95;;;;;;;;;;5031003;28;20041;-65
2021/03/09 01:55:22;;;;;;;11.53;2.30;;;;;;;;;;5029260;28;20041;-66
2021/03/09 01:57:49;;;;;;;5.07;2.67;;;;;;;;;;5029517;28;20045;-65
2021/03/09 02:00:15;;;;;;;;;;;;;;;;;;5031822;28;20072;-66
2021/03/09 02:02:42;;;;;;;10.10;3.17;;;;;;;;;;5028059;28;19925;-65
2021/03/09 02:05:10;;;;;;;7.00;2.17;;;;;;;;;;5027960;28;20481;-65
2021/03/09 02:07:36;;;;;;;8.20;3.00;;;;;;;;;;5029548;28;20326;-65
2021/03/09 02:10:03;;;;;;;7.28;2.95;;;;;;;;;;5027119;28;20033;-66
2021/03/09 02:12:33;;;;;;;10.07;2.78;;;;;;;;;;5025792;28;20045;-65
2021/03/09 02:15:25;;;;;;;20.57;3.23;;;;;;;;;;5025862;28;20393;-65
2021/03/09 02:17:56;;;;;;;10.53;2.60;;;;;;;;;;5022112;28;20056;-65
2021/03/09 02:20:41;;;;;;;7.00;2.53;;;;;;;;;;5025901;28;20091;-66
2021/03/09 02:23:34;;;;;;;14.90;2.40;;;;;;;;;;5027498;28;20404;-65
2021/03/09 02:26:00;;;;;;;7.80;2.60;;;;;;;;;;5019803;28;20046;-65
2021/03/09 02:28:38;;;;;;;12.93;2.60;;;;;;;;;;5031094;28;20042;-66
2021/03/09 02:31:06;;;;;;;15.88;3.90;;;;;;;;;;5027037;28;20087;-65
2021/03/09 02:33:34;;;;;;;10.83;3.27;;;;;;;;;;5029027;28;20049;-65
2021/03/09 02:36:06;;;;;;;10.50;2.83;;;;;;;;;;5028445;28;20068;-65
2021/03/09 02:38:34;;;;;;;15.77;2.80;;;;;;;;;;5032686;28;20099;-65
2021/03/09 02:41:02;;;;;;;12.10;2.60;;;;;;;;;;5025422;28;20076;-65
2021/03/09 02:43:28;;;;;;;7.13;2.08;;;;;;;;;;5022498;28;20042;-65
2021/03/09 02:45:56;;;;;;;10.82;2.25;;;;;;;;;;5022719;28;20049;-65
2021/03/09 02:48:24;;;;;;;6.77;2.90;;;;;;;;;;5028441;28;20100;-65
2021/03/09 02:50:53;;;;;;;11.30;2.40;;;;;;;;;;5029780;28;20046;-65
2021/03/09 02:53:19;;;;;;;16.50;2.90;;;;;;;;;;5028301;28;20046;-65
2021/03/09 02:55:48;;;;;;;8.10;2.55;;;;;;;;;;5027340;28;20045;-65
2021/03/09 02:58:15;;;;;;;7.07;2.93;;;;;;;;;;5026747;28;20083;-66
2021/03/09 03:00:42;;;;;;;9.45;3.50;;;;;;;;;;5026066;28;20485;-65
2021/03/09 03:03:09;;;;;;;9.80;3.08;;;;;;;;;;5025431;28;20073;-65
2021/03/09 03:05:36;;;;;;;7.78;3.00;;;;;;;;;;5030797;28;20052;-65
2021/03/09 03:08:02;;;;;;;;;;;;;;;;;;5030181;28;20037;-65
2021/03/09 03:10:29;;;;;;;11.40;2.90;;;;;;;;;;5025340;28;19921;-65
2021/03/09 03:12:55;;;;;;;6.83;2.70;;;;;;;;;;5030374;28;20045;-65
2021/03/09 03:15:22;;;;;;;7.07;2.50;;;;;;;;;;5028504;28;20763;-65
2021/03/09 03:17:48;;;;;;;10.87;2.73;;;;;;;;;;5029078;28;20033;-65
2021/03/09 03:20:16;;;;;;;14.15;2.45;;;;;;;;;;5029886;28;20045;-66
2021/03/09 03:22:43;;;;;;;17.03;2.97;;;;;;;;;;5030236;28;20045;-65
2021/03/09 03:25:10;;;;;;;9.38;3.20;;;;;;;;;;5029779;28;20110;-65
2021/03/09 03:27:37;;;;;;;6.65;2.47;;;;;;;;;;5029206;28;20072;-66
2021/03/09 03:30:03;;;;;;;;;;;;;;;;;;5029113;28;20046;-65
2021/03/09 03:32:29;;;;;;;6.57;2.47;;;;;;;;;;5029381;28;20396;-65
2021/03/09 03:34:57;;;;;;;12.00;3.00;;;;;;;;;;5028919;28;20069;-65
2021/03/09 03:37:23;;;;;;;13.60;2.67;;;;;;;;;;5027392;28;20053;-65
2021/03/09 03:39:49;;;;;;;8.50;3.07;;;;;;;;;;5041021;28;20480;-66
2021/03/09 03:42:16;;;;;;;9.43;2.97;;;;;;;;;;5022626;28;20501;-66
2021/03/09 03:44:42;;;;;;;10.13;3.10;;;;;;;;;;5028051;28;20508;-65
2021/03/09 03:47:08;;;;;;;9.50;2.87;;;;;;;;;;5025985;28;20296;-66
2021/03/09 03:49:35;;;;;;;12.03;2.90;;;;;;;;;;5029770;28;20053;-66
2021/03/09 03:52:10;;;;;;;8.93;2.93;;;;;;;;;;5026086;28;20052;-65
2021/03/09 03:54:58;;;;;;;13.50;3.37;;;;;;;;;;5026049;28;20055;-66
2021/03/09 03:57:33;;;;;;;4.10;2.60;;;;;;;;;;5030233;28;20053;-66
2021/03/09 04:00:03;;;;;;;11.50;3.37;;;;;;;;;;5027307;28;20099;-66
2021/03/09 04:02:31;;;;;;;9.87;3.13;;;;;;;;;;5029886;28;20045;-66
2021/03/09 04:04:58;;;;;;;13.15;3.42;;;;;;;;;;5025060;28;20579;-66
2021/03/09 04:07:26;;;;;;;11.00;3.22;;;;;;;;;;5030705;28;20034;-65
2021/03/09 04:09:55;;;;;;;7.90;3.73;;;;;;;;;;5032887;28;20463;-65
2021/03/09 04:12:23;;;;;;;10.52;3.35;;;;;;;;;;5030116;28;20091;-65
2021/03/09 04:14:49;;;;;;;14.88;3.30;;;;;;;;;;5031100;28;20041;-66
2021/03/09 04:17:17;;;;;;;11.13;3.70;;;;;;;;;;5031735;28;20042;-65
2021/03/09 04:19:44;;;;;;;16.30;3.47;;;;;;;;;;5026425;28;20093;-66
2021/03/09 04:22:11;;;;;;;;;;;;;;;;;;5030900;28;20520;-65
2021/03/09 04:24:37;;;;;;;8.50;3.07;;;;;;;;;;5032534;28;19966;-66
2021/03/09 04:27:03;;;;;;;20.53;3.47;;;;;;;;;;5033691;28;20095;-66
2021/03/09 04:29:29;;;;;;;12.80;2.90;;;;;;;;;;5036886;28;20084;-65
2021/03/09 04:31:56;;;;;;;10.70;2.63;;;;;;;;;;5035504;28;20116;-66
2021/03/09 04:34:22;;;;;;;12.73;3.37;;;;;;;;;;5033207;28;20389;-66
2021/03/09 04:36:48;;;;;;;10.20;3.30;;;;;;;;;;5032877;28;20132;-66
2021/03/09 04:39:15;;;;;;;10.17;3.10;;;;;;;;;;5033610;28;20037;-66
2021/03/09 04:41:41;;;;;;;10.43;3.20;;;;;;;;;;5032234;28;20107;-65
2021/03/09 04:44:07;;;;;;;8.05;3.80;;;;;;;;;;5030037;28;20044;-66
2021/03/09 04:46:34;;;;;;;10.70;3.53;;;;;;;;;;5028687;28;20045;-66
2021/03/09 04:49:00;;;;;;;6.13;2.73;;;;;;;;;;5032539;28;20045;-66
2021/03/09 04:51:27;;;;;;;11.60;2.72;;;;;;;;;;5031863;28;20625;-65
2021/03/09 04:53:54;;;;;;;11.37;2.80;;;;;;;;;;5031147;28;20056;-66
2021/03/09 04:56:20;;;;;;;10.03;3.30;;;;;;;;;;5032646;28;20948;-65
2021/03/09 04:58:46;;;;;;;13.17;3.10;;;;;;;;;;5030209;28;20393;-66
2021/03/09 05:01:12;;;;;;;6.90;2.70;;;;;;;;;;5025139;28;20073;-66
2021/03/09 05:03:39;;;;;;;14.10;3.53;;;;;;;;;;5029815;28;20489;-66
2021/03/09 05:06:05;;;;;;;13.02;3.08;;;;;;;;;;5031730;28;20567;-66
2021/03/09 05:08:32;;;;;;;12.97;3.03;;;;;;;;;;5029902;28;20046;-66
2021/03/09 05:10:58;;;;;;;14.93;3.88;;;;;;;;;;5027023;28;20299;-66
2021/03/09 05:13:24;;;;;;;10.55;3.15;;;;;;;;;;5028577;28;20128;-66
2021/03/09 05:15:51;;;;;;;12.37;3.20;;;;;;;;;;5027475;28;20563;-66
2021/03/09 05:18:17;;;;;;;10.30;3.28;;;;;;;;;;5027538;28;20034;-66
2021/03/09 05:20:44;;;;;;;13.80;4.67;;;;;;;;;;5031945;28;20043;-66
2021/03/09 05:23:10;;;;;;;10.60;3.53;;;;;;;;;;5030195;28;20037;-66
2021/03/09 05:25:37;;;;;;;11.07;3.28;;;;;;;;;;5031643;28;20056;-66
2021/03/09 05:28:03;;;;;;;10.70;3.28;;;;;;;;;;5029170;28;20045;-66
2021/03/09 05:30:29;;;;;;;12.65;3.65;;;;;;;;;;5028644;28;20059;-66
2021/03/09 05:32:57;;;;;;;8.00;2.92;;;;;;;;;;5027779;28;20092;-66
2021/03/09 05:35:24;;;;;;;10.48;3.33;;;;;;;;;;5029006;28;20505;-66
2021/03/09 05:37:51;;;;;;;14.00;3.75;;;;;;;;;;5031212;28;20052;-66
2021/03/09 05:40:19;;;;;;;12.38;3.38;;;;;;;;;;5023353;28;20082;-66
2021/03/09 05:42:49;;;;;;;7.55;3.10;;;;;;;;;;5031654;28;20069;-66
2021/03/09 05:45:15;;;;;;;13.10;3.65;;;;;;;;;;5027437;28;20054;-66
2021/03/09 05:47:42;;;;;;;13.27;3.13;;;;;;;;;;5030727;28;20041;-67
2021/03/09 05:50:08;;;;;;;11.68;3.22;;;;;;;;;;5021947;28;20099;-65
2021/03/09 05:52:35;;;;;;;14.30;3.43;;;;;;;;;;5028141;28;20054;-65
2021/03/09 05:55:03;;;;;;;14.75;3.40;;;;;;;;;;5030614;28;20292;-65
2021/03/09 05:57:30;;;;;;;13.25;3.28;;;;;;;;;;5029853;28;20049;-65
2021/03/09 05:59:56;;;;;;;16.58;3.58;;;;;;;;;;5025928;28;20490;-65
2021/03/09 06:02:22;;;;;;;10.90;3.28;;;;;;;;;;5026284;28;20042;-65
2021/03/09 06:04:49;;;;;;;12.85;4.05;;;;;;;;;;5029895;28;20056;-65
2021/03/09 06:07:19;;;;;;;17.02;3.83;;;;;;;;;;5028728;28;20041;-65
2021/03/09 06:09:45;;;;;;;9.98;3.10;;;;;;;;;;5030659;28;20583;-66
2021/03/09 06:12:16;;;;;;;9.75;3.58;;;;;;;;;;5029535;28;20038;-65
2021/03/09 06:14:44;;;;;;;18.60;3.67;;;;;;;;;;5028031;28;20083;-66
2021/03/09 06:17:11;;;;;;;12.13;3.45;;;;;;;;;;5031416;28;20524;-65
2021/03/09 06:19:45;;;;;;;13.02;3.65;;;;;;;;;;5030992;28;20144;-66
2021/03/09 06:22:12;;;;;;;17.10;3.72;;;;;;;;;;5027429;28;20103;-66
2021/03/09 06:24:39;;;;;;;10.43;3.42;;;;;;;;;;5028740;28;20049;-66
2021/03/09 06:27:22;;;;;;;17.48;4.18;;;;;;;;;;5031386;28;20061;-66
2021/03/09 06:29:48;;;;;;;8.50;3.85;;;;;;;;;;5028813;28;20551;-65
2021/03/09 06:32:15;;;;;;;9.45;3.85;;;;;;;;;;5031023;28;20140;-66
2021/03/09 06:34:41;;;;;;;9.93;2.83;;;;;;;;;;5031155;28;20064;-66
2021/03/09 06:37:07;;;;;;;10.63;3.58;;;;;;;;;;5029963;28;20306;-66
2021/03/09 06:39:43;;;;;;;14.50;3.67;;;;;;;;;;5030951;28;20049;-66
2021/03/09 06:42:10;;;;;;;7.97;3.50;;;;;;;;;;5030154;28;20076;-66
2021/03/09 06:44:36;;;;;;;13.90;4.05;;;;;;;;;;5027972;28;20045;-66
2021/03/09 06:47:02;;;;;;;10.45;3.80;;;;;;;;;;5029580;28;20519;-66
2021/03/09 06:49:29;;;;;;;16.20;4.28;;;;;;;;;;5024342;28;20091;-66
2021/03/09 06:52:11;;;;;;;9.40;3.27;;;;;;;;;;5030719;28;20045;-66
2021/03/09 06:54:44;;;;;;;14.55;3.75;;;;;;;;;;5030962;28;20033;-66
2021/03/09 06:57:10;;;;;;;12.90;3.75;;;;;;;;;;5030971;28;20095;-66
2021/03/09 06:59:37;;;;;;;12.77;4.15;;;;;;;;;;5029270;28;20536;-66
2021/03/09 07:02:06;;;;;;;9.83;4.10;;;;;;;;;;5028271;28;20121;-66
2021/03/09 07:04:33;;;;;;;19.73;4.40;;;;;;;;;;5026381;28;20045;-66
2021/03/09 07:07:00;;;;;;;16.88;4.82;;;;;;;;;;5027680;28;20087;-66
2021/03/09 07:09:26;;;;;;;9.02;2.97;;;;;;;;;;5030640;28;20516;-66
2021/03/09 07:11:53;;;;;;;14.18;4.53;;;;;;;;;;5026960;28;20568;-66
2021/03/09 07:14:20;;;;;;;10.13;4.03;;;;;;;;;;5026465;28;20096;-66
2021/03/09 07:16:47;;;;;;;11.32;4.28;;;;;;;;;;5029503;28;20037;-66
2021/03/09 07:19:16;;;;;;;15.60;4.78;;;;;;;;;;5031469;28;20037;-66
2021/03/09 07:21:43;;;;;;;10.52;4.60;;;;;;;;;;5017867;28;20586;-66
2021/03/09 07:24:09;;;;;;;10.53;3.57;;;;;;;;;;5031861;28;20037;-66
2021/03/09 07:26:38;;;;;;;14.70;4.95;;;;;;;;;;5033211;28;20342;-66
2021/03/09 07:29:07;;;;;;;14.52;5.20;;;;;;;;;;5027388;28;20063;-66
2021/03/09 07:31:34;;;;;;;12.90;4.80;;;;;;;;;;5026639;28;20053;-66
2021/03/09 07:34:01;;;;;;;13.40;4.47;;;;;;;;;;5030310;28;20045;-66
2021/03/09 07:36:28;;;;;;;18.13;4.80;;;;;;;;;;5028331;28;20059;-66
2021/03/09 07:38:56;;;;;;;12.82;5.53;;;;;;;;;;5023728;28;20045;-66
2021/03/09 07:41:22;;;;;;;8.95;4.45;;;;;;;;;;5028263;28;20072;-66
2021/03/09 07:43:48;;;;;;;11.75;4.70;;;;;;;;;;5028370;28;20041;-67
2021/03/09 07:46:15;;;;;;;15.27;5.13;;;;;;;;;;5033371;28;20099;-67
2021/03/09 07:48:40;;;;;;;11.95;4.95;;;;;;;;;;5034350;28;20033;-66
2021/03/09 07:51:06;;;;;;;13.00;5.07;;;;;;;;;;5033741;28;20029;-66
2021/03/09 07:53:31;;;;;;;12.15;4.82;;;;;;;;;;5033484;28;20034;-66
2021/03/09 07:56:12;;;;;;;11.40;5.20;;;;;;;;;;5029054;28;20091;-66
2021/03/09 07:58:38;;;;;;;18.52;5.68;;;;;;;;;;5029888;28;20037;-67
2021/03/09 08:01:08;;;;;;;16.08;5.53;;;;;;;;;;5031487;28;20045;-67
2021/03/09 08:03:33;;;;;;;14.25;5.55;;;;;;;;;;5032801;28;20040;-66
2021/03/09 08:06:01;;;;;;;17.02;5.32;;;;;;;;;;5032802;28;20034;-67
2021/03/09 08:08:39;;;;;;;18.40;5.82;;;;;;;;;;5030374;28;20064;-67
2021/03/09 08:11:07;;;;;;;16.00;5.53;;;;;;;;;;5030372;28;20045;-66
2021/03/09 08:13:32;;;;;;;13.25;6.13;;;;;;;;;;5032423;28;20120;-66
2021/03/09 08:16:17;;;;;;;17.23;5.88;;;;;;;;;;5029676;28;20041;-67
2021/03/09 08:18:44;;;;;;;14.52;5.63;;;;;;;;;;5030363;28;20049;-66
2021/03/09 08:21:10;;;;;;;15.23;5.70;;;;;;;;;;5033368;28;20069;-67
2021/03/09 08:23:36;;;;;;;17.80;6.00;;;;;;;;;;5028402;28;20099;-66
2021/03/09 08:26:04;;;;;;;18.58;6.30;;;;;;;;;;5030741;28;20524;-67
2021/03/09 08:28:47;;;;;;;18.20;6.05;;;;;;;;;;5031377;28;20481;-67
2021/03/09 08:31:13;;;;;;;15.65;5.75;;;;;;;;;;5033066;28;20049;-66
2021/03/09 08:33:48;;;;;;;16.52;5.50;;;;;;;;;;5033274;28;20048;-67
2021/03/09 08:36:20;;;;;;;13.63;5.13;;;;;;;;;;5030571;28;20045;-67
2021/03/09 08:39:02;;;;;;;11.80;5.30;;;;;;;;;;5032267;28;20037;-67
2021/03/09 08:41:34;;;;;;;19.13;6.30;;;;;;;;;;5034640;28;20091;-66
2021/03/09 08:44:20;;;;;;;18.45;5.90;;;;;;;;;;5031080;28;20041;-67
2021/03/09 08:46:59;;;;;;;17.77;5.30;;;;;;;;;;5032164;28;20049;-66
2021/03/09 08:49:36;;;;;;;12.80;5.38;;;;;;;;;;5032493;28;20087;-67
2021/03/09 08:52:07;;;;;;;14.02;5.20;;;;;;;;;;5032387;28;20041;-67
2021/03/09 08:54:35;;;;;;;17.13;5.72;;;;;;;;;;5043495;28;20452;-67
2021/03/09 08:57:12;;;;;;;11.60;5.57;;;;;;;;;;5027564;28;20077;-67
2021/03/09 08:59:39;;;;;;;12.60;4.93;;;;;;;;;;5030358;28;20474;-67
2021/03/09 09:02:07;;;;;;;13.45;4.97;;;;;;;;;;5030214;28;20049;-67
2021/03/09 09:04:34;;;;;;;25.02;5.80;;;;;;;;;;5028358;28;20080;-67
2021/03/09 09:07:15;;;;;;;15.10;4.50;;;;;;;;;;5027102;28;20096;-67
2021/03/09 09:09:41;;;;;;;14.30;5.00;;;;;;;;;;5032582;28;20041;-67
2021/03/09 09:12:27;;;;;;;24.17;4.90;;;;;;;;;;5030521;28;20045;-67
2021/03/09 09:15:01;;;;;;;18.77;4.63;;;;;;;;;;5030207;28;20041;-67
2021/03/09 09:17:28;;;;;;;10.50;4.25;;;;;;;;;;5032894;28;20057;-67
2021/03/09 09:19:55;;;;;;;10.38;3.33;;;;;;;;;;5026865;28;20120;-67
2021/03/09 09:22:23;;;;;;;12.77;4.05;;;;;;;;;;5032638;28;20052;-67
2021/03/09 09:24:53;;;;;;;16.95;4.35;;;;;;;;;;5032377;28;20517;-67
2021/03/09 09:27:19;;;;;;;12.02;4.45;;;;;;;;;;5030843;28;20076;-67
2021/03/09 09:29:52;;;;;;;18.40;4.85;;;;;;;;;;5025206;28;20084;-67
2021/03/09 09:32:19;;;;;;;10.13;3.50;;;;;;;;;;5028601;28;20049;-67
2021/03/09 09:34:45;;;;;;;11.68;3.45;;;;;;;;;;5031575;28;20054;-67
2021/03/09 09:37:13;;;;;;;8.70;3.60;;;;;;;;;;5029766;28;20049;-67
2021/03/09 09:39:39;;;;;;;12.27;4.07;;;;;;;;;;5031791;28;20056;-67
2021/03/09 09:42:11;;;;;;;10.30;3.22;;;;;;;;;;5028939;28;20054;-67
2021/03/09 09:44:38;;;;;;;14.75;3.47;;;;;;;;;;5029173;28;20389;-67
2021/03/09 09:47:05;;;;;;;12.95;3.25;;;;;;;;;;5026501;28;20095;-67
2021/03/09 09:49:32;;;;;;;12.85;2.53;;;;;;;;;;5031865;28;20108;-67
2021/03/09 09:51:59;;;;;;;12.70;2.78;;;;;;;;;;5028612;28;20151;-67
2021/03/09 09:54:25;;;;;;;7.40;2.40;;;;;;;;;;5022087;28;20121;-67
2021/03/09 09:56:51;;;;;;;5.47;2.20;;;;;;;;;;5030606;28;20131;-67
2021/03/09 09:59:26;;;;;;;9.00;2.53;;;;;;;;;;5020672;28;20095;-67
2021/03/09 10:01:52;;;;;;;18.05;3.70;;;;;;;;;;5027792;28;20049;-67
2021/03/09 10:04:19;;;;;;;13.20;2.63;;;;;;;;;;5029708;28;20068;-67
2021/03/09 10:06:46;;;;;;;19.13;3.83;;;;;;;;;;5028427;28;20078;-68
2021/03/09 10:09:16;;;;;;;17.08;2.38;;;;;;;;;;5024096;28;20103;-68
2021/03/09 10:11:43;;;;;;;10.02;2.47;;;;;;;;;;5027762;28;20068;-67
2021/03/09 10:14:10;;;;;;;6.82;2.00;;;;;;;;;;5028743;28;20057;-67
2021/03/09 10:16:37;;;;;;;10.55;1.88;;;;;;;;;;5026720;28;20421;-68
2021/03/09 10:19:04;;;;;;;6.95;2.20;;;;;;;;;;5027972;28;20037;-68
2021/03/09 10:21:32;;;;;;;3.42;1.50;;;;;;;;;;5031473;28;20084;-67
2021/03/09 10:23:59;;;;;;;6.90;2.10;;;;;;;;;;5032820;28;20037;-68
2021/03/09 10:26:34;;;;;;;5.30;2.17;;;;;;;;;;5038280;28;20144;-67
2021/03/09 10:29:06;;;;;;;6.03;1.70;;;;;;;;;;5029174;28;20052;-67
2021/03/09 10:31:39;;;;;;;6.97;1.52;;;;;;;;;;5029348;28;20095;-67
2021/03/09 10:34:05;;;;;;;5.68;1.25;;;;;;;;;;5024398;28;20069;-67
2021/03/09 10:36:47;;;;;;;4.70;1.45;;;;;;;;;;5028902;28;20501;-68
2021/03/09 10:39:14;;;;;;;7.65;1.50;;;;;;;;;;5030677;28;20095;-67
2021/03/09 10:41:40;;;;;;;4.18;1.25;;;;;;;;;;5030800;28;20081;-67
2021/03/09 10:44:06;;;;;;;8.00;1.65;;;;;;;;;;5033241;28;20051;-67
2021/03/09 10:46:35;;;;;;;5.30;1.60;;;;;;;;;;5029442;28;20103;-68
2021/03/09 10:49:02;;;;;;;4.13;1.48;;;;;;;;;;5029537;28;20050;-67
2021/03/09 10:51:29;;;;;;;5.20;1.35;;;;;;;;;;5031242;28;20501;-67
2021/03/09 10:53:55;;;;;;;12.50;1.88;;;;;;;;;;5034082;28;20434;-68
2021/03/09 10:56:21;;;;;;;8.18;1.70;;;;;;;;;;5030217;28;20057;-67
2021/03/09 10:58:48;;;;;;;6.82;1.90;;;;;;;;;;5030200;28;20452;-68
2021/03/09 11:01:14;;;;;;;6.88;1.70;;;;;;;;;;5028127;28;20100;-68
2021/03/09 11:03:40;;;;;;;6.85;1.27;;;;;;;;;;5028565;28;20095;-68
2021/03/09 11:06:06;;;;;;;5.32;1.40;;;;;;;;;;5030548;28;20057;-68
2021/03/09 11:08:32;;;;;;;8.55;2.13;;;;;;;;;;5027226;28;20486;-67
2021/03/09 11:10:59;;;;;;;6.72;1.80;;;;;;;;;;5029856;28;20460;-67
2021/03/09 11:13:25;;;;;;;7.03;1.77;;;;;;;;;;5029548;28;20432;-67
2021/03/09 11:15:51;;;;;;;7.32;1.60;;;;;;;;;;5025338;28;20144;-68
2021/03/09 11:18:17;;;;;;;8.25;1.65;;;;;;;;;;5028181;28;20057;-68
2021/03/09 11:20:44;;;;;;;4.70;1.63;;;;;;;;;;5030753;28;20053;-67
2021/03/09 11:23:10;;;;;;;9.35;1.55;;;;;;;;;;5030391;28;20076;-68
2021/03/09 11:25:37;;;;;;;6.53;1.70;;;;;;;;;;5032194;28;20042;-67
2021/03/09 11:28:04;;;;;;;8.23;1.77;;;;;;;;;;5028748;28;20128;-67
2021/03/09 11:30:31;;;;;;;5.72;1.33;;;;;;;;;;5027273;28;20049;-67
2021/03/09 11:32:57;;;;;;;7.57;1.30;;;;;;;;;;5029121;28;20763;-67
2021/03/09 11:35:23;;;;;;;4.82;1.25;;;;;;;;;;5029786;28;20663;-68
2021/03/09 11:37:49;;;;;;;5.03;1.27;;;;;;;;;;5027099;28;20048;-68
2021/03/09 11:40:16;;;;;;;9.15;1.55;;;;;;;;;;5029894;28;20095;-67
2021/03/09 11:42:42;;;;;;;5.88;1.60;;;;;;;;;;5029976;28;20045;-68
2021/03/09 11:45:09;;;;;;;4.93;1.75;;;;;;;;;;5029459;28;20491;-68
2021/03/09 11:47:35;;;;;;;5.82;1.40;;;;;;;;;;5028198;28;20053;-68
2021/03/09 11:50:03;;;;;;;6.28;1.45;;;;;;;;;;5031368;28;20485;-67
2021/03/09 11:52:30;;;;;;;2.10;1.08;;;;;;;;;;5029410;28;20046;-67
2021/03/09 11:54:56;;;;;;;7.47;1.08;;;;;;;;;;5023743;28;20394;-67
2021/03/09 11:57:22;;;;;;;8.60;1.30;;;;;;;;;;5024801;28;20053;-67
2021/03/09 11:59:49;;;;;;;3.50;1.42;;;;;;;;;;5024873;28;20053;-68
2021/03/09 12:02:16;;;;;;;5.85;1.27;;;;;;;;;;5029702;28;20497;-68
2021/03/09 12:04:42;;;;;;;7.68;1.42;;;;;;;;;;5027401;28;20124;-67
2021/03/09 12:07:09;;;;;;;5.03;1.45;;;;;;;;;;5025112;28;20045;-68
2021/03/09 12:09:35;;;;;;;6.18;1.83;;;;;;;;;;5027995;28;20057;-68
2021/03/09 12:12:01;;;;;;;10.98;1.88;;;;;;;;;;5028003;28;20042;-67
2021/03/09 12:14:27;;;;;;;4.50;1.30;;;;;;;;;;5024531;28;20111;-68
2021/03/09 12:16:54;;;;;;;7.00;1.50;;;;;;;;;;5028123;28;20489;-68
2021/03/09 12:19:20;;;;;;;5.75;1.55;;;;;;;;;;5029449;28;20060;-68
2021/03/09 12:21:46;;;;;;;10.98;1.80;;;;;;;;;;5026011;28;20072;-68
2021/03/09 12:24:13;;;;;;;4.40;1.23;;;;;;;;;;5029576;28;20037;-67
2021/03/09 12:26:39;;;;;;;6.38;1.60;;;;;;;;;;5029738;28;20041;-67
2021/03/09 12:29:05;;;;;;;7.40;1.65;;;;;;;;;;5025098;28;20067;-68
2021/03/09 12:31:31;;;;;;;4.18;1.10;;;;;;;;;;5031462;28;20054;-68
2021/03/09 12:33:58;;;;;;;6.40;1.23;;;;;;;;;;5029857;28;20103;-67
2021/03/09 12:36:25;;;;;;;9.10;1.48;;;;;;;;;;5035155;28;20048;-68
2021/03/09 12:38:51;;;;;;;6.68;1.58;;;;;;;;;;5027433;28;20045;-68
2021/03/09 12:41:18;;;;;;;8.07;1.45;;;;;;;;;;5028531;28;20472;-68
2021/03/09 12:43:44;;;;;;;2.85;1.30;;;;;;;;;;5032575;28;20053;-68
2021/03/09 12:46:10;;;;;;;3.38;1.38;;;;;;;;;;5031156;28;20406;-71
2021/03/09 12:48:37;;;;;;;4.80;1.40;;;;;;;;;;5030989;28;20034;-68
2021/03/09 12:51:04;;;;;;;5.25;1.45;;;;;;;;;;5033745;28;20052;-68
2021/03/09 12:53:30;;;;;;;7.38;1.75;;;;;;;;;;5032345;28;20127;-68
2021/03/09 12:55:56;;;;;;;5.70;1.35;;;;;;;;;;5030074;28;20045;-68
2021/03/09 12:58:23;;;;;;;4.65;1.08;;;;;;;;;;5031506;28;20057;-67
2021/03/09 13:00:49;;;;;;;7.13;1.25;;;;;;;;;;5028969;28;20124;-68
2021/03/09 13:03:17;;;;;;;3.35;1.38;;;;;;;;;;5031838;28;20053;-67
2021/03/09 13:05:44;;;;;;;8.82;1.50;;;;;;;;;;5032607;28;20110;-68
2021/03/09 13:08:13;;;;;;;5.53;1.67;;;;;;;;;;5032654;28;20532;-67
2021/03/09 13:10:39;;;;;;;3.97;1.10;;;;;;;;;;5032258;28;20073;-67
2021/03/09 13:13:05;;;;;;;16.17;1.58;;;;;;;;;;5029291;28;20448;-67
2021/03/09 13:15:32;;;;;;;4.78;1.50;;;;;;;;;;5030143;28;20052;-68
2021/03/09 13:17:58;;;;;;;5.20;1.20;;;;;;;;;;5030659;28;20053;-68
2021/03/09 13:20:28;;;;;;;7.93;1.52;;;;;;;;;;5032511;28;20503;-68
2021/03/09 13:22:54;;;;;;;5.20;1.30;;;;;;;;;;5026146;28;20374;-68
2021/03/09 13:25:20;;;;;;;7.47;1.42;;;;;;;;;;5030424;28;20521;-68
2021/03/09 13:27:46;;;;;;;8.27;1.42;;;;;;;;;;5032533;28;20067;-68
2021/03/09 13:30:14;;;;;;;8.93;1.60;;;;;;;;;;5031702;28;20488;-67
2021/03/09 13:32:42;;;;;;;3.38;1.40;;;;;;;;;;5033055;28;20414;-68
2021/03/09 13:35:08;;;;;;;7.65;1.35;;;;;;;;;;5032425;28;20505;-67
2021/03/09 13:37:34;;;;;;;2.80;1.40;;;;;;;;;;5026782;28;20060;-68
2021/03/09 13:40:01;;;;;;;3.78;1.30;;;;;;;;;;5030152;28;20107;-68
2021/03/09 13:42:27;;;;;;;9.63;1.50;;;;;;;;;;5030122;28;20061;-68
2021/03/09 13:44:53;;;;;;;7.78;1.42;;;;;;;;;;5030721;28;20128;-68
2021/03/09 13:47:19;;;;;;;5.00;1.20;;;;;;;;;;5025952;28;20504;-68
2021/03/09 13:49:46;;;;;;;2.37;1.07;;;;;;;;;;5029978;28;20107;-67
2021/03/09 13:52:13;;;;;;;3.55;1.10;;;;;;;;;;5026363;28;20396;-68
2021/03/09 13:54:42;;;;;;;2.97;1.10;;;;;;;;;;5028090;28;20044;-68
2021/03/09 13:57:14;;;;;;;4.07;0.98;;;;;;;;;;5031346;28;20041;-68
2021/03/09 13:59:40;;;;;;;5.05;1.15;;;;;;;;;;5031873;28;20217;-68
2021/03/09 14:02:08;;;;;;;7.95;1.65;;;;;;;;;;5029211;28;20079;-68
2021/03/09 14:04:35;;;;;;;1.88;0.95;;;;;;;;;;5028045;28;20069;-68
2021/03/09 14:07:02;;;;;;;4.07;1.27;;;;;;;;;;5025170;28;20397;-67
2021/03/09 14:09:28;;;;;;;3.88;1.50;;;;;;;;;;5030670;28;20041;-68
2021/03/09 14:11:55;;;;;;;3.83;1.20;;;;;;;;;;5021273;28;20042;-68
2021/03/09 14:14:21;;;;;;;3.80;1.30;;;;;;;;;;5025578;28;20071;-68
2021/03/09 14:16:47;;;;;;;3.10;1.48;;;;;;;;;;5031011;28;20054;-67
2021/03/09 14:19:14;;;;;;;5.15;1.27;;;;;;;;;;5025787;28;20048;-68
2021/03/09 14:21:40;;;;;;;6.65;1.10;;;;;;;;;;5027252;28;20082;-68
2021/03/09 14:24:06;;;;;;;4.68;1.30;;;;;;;;;;5028721;28;20511;-68
2021/03/09 14:26:33;;;;;;;3.85;1.35;;;;;;;;;;5031383;28;20053;-68
2021/03/09 14:28:59;;;;;;;3.65;1.30;;;;;;;;;;5031115;28;20057;-68
2021/03/09 14:31:26;;;;;;;3.58;1.10;;;;;;;;;;5021131;28;20055;-67
2021/03/09 14:33:52;;;;;;;7.47;1.10;;;;;;;;;;5028292;28;20045;-67
2021/03/09 14:36:20;;;;;;;7.57;1.30;;;;;;;;;;5028644;28;20045;-67
2021/03/09 14:38:47;;;;;;;6.13;1.23;;;;;;;;;;5029418;28;20560;-67
2021/03/09 14:41:14;;;;;;;3.80;1.20;;;;;;;;;;5024170;28;20448;-68